createdAt,value
2023-04-12T00:00:15.885Z,3.93
2023-04-12T00:02:24.919Z,4.03
2023-04-12T00:04:30.277Z,4.07
2023-04-12T00:06:36.855Z,4.05
2023-04-12T00:08:42.959Z,4.06
2023-04-12T00:10:48.644Z,4.10
2023-04-12T00:12:54.024Z,4.05
2023-04-12T00:15:01.782Z,4.12
2023-04-12T00:17:07.468Z,4.02
2023-04-12T00:19:13.120Z,3.97
2023-04-12T00:21:20.053Z,3.98
2023-04-12T00:23:25.085Z,3.99
2023-04-12T00:25:30.278Z,3.95
2023-04-12T00:27:35.830Z,3.96
2023-04-12T00:29:41.617Z,4.03
2023-04-12T00:31:50.230Z,4.06
2023-04-12T00:33:55.711Z,4.03
2023-04-12T00:36:01.004Z,4.03
2023-04-12T00:38:10.812Z,4.09
2023-04-12T00:40:16.731Z,3.99
2023-04-12T00:42:21.763Z,3.91
2023-04-12T00:44:27.793Z,3.86
2023-04-12T00:46:34.285Z,3.85
2023-04-12T00:48:42.823Z,3.92
2023-04-12T00:50:47.998Z,3.99
2023-04-12T00:52:54.786Z,4.04
2023-04-12T00:54:59.818Z,4.01
2023-04-12T00:57:05.701Z,3.99
2023-04-12T00:59:11.056Z,4.04
2023-04-12T01:01:17.399Z,4.12
2023-04-12T01:03:23.931Z,4.20
2023-04-12T01:05:37.151Z,4.32
2023-04-12T01:07:51.771Z,4.36
2023-04-12T01:10:08.394Z,4.36
2023-04-12T01:12:28.674Z,4.32
2023-04-12T01:14:46.998Z,4.37
2023-04-12T01:17:02.212Z,4.44
2023-04-12T01:19:22.957Z,4.49
2023-04-12T01:21:43.882Z,4.53
2023-04-12T01:24:06.877Z,4.55
2023-04-12T01:26:38.038Z,4.51
2023-04-12T01:28:47.404Z,4.42
2023-04-12T01:30:54.294Z,4.39
2023-04-12T01:33:05.135Z,4.46
2023-04-12T01:35:12.881Z,4.50
2023-04-12T01:37:21.783Z,4.41
2023-04-12T01:39:28.180Z,4.36
2023-04-12T01:41:35.192Z,4.35
2023-04-12T01:43:47.115Z,4.33
2023-04-12T01:45:52.212Z,4.37
2023-04-12T01:47:57.298Z,4.42
2023-04-12T01:50:17.631Z,4.47
2023-04-12T01:52:24.156Z,4.55
2023-04-12T01:54:34.126Z,4.64
2023-04-12T01:56:42.089Z,4.74
2023-04-12T01:58:53.909Z,4.88
2023-04-12T02:01:02.505Z,4.91
2023-04-12T02:03:08.899Z,4.96
2023-04-12T02:05:15.181Z,5.03
2023-04-12T02:07:23.533Z,5.12
2023-04-12T02:09:28.531Z,5.17
2023-04-12T02:11:33.566Z,5.24
2023-04-12T02:13:38.676Z,5.33
2023-04-12T02:15:46.973Z,5.39
2023-04-12T02:17:54.133Z,5.37
2023-04-12T02:20:00.624Z,5.40
2023-04-12T02:22:06.342Z,5.42
2023-04-12T02:24:12.050Z,5.41
2023-04-12T02:26:17.122Z,5.43
2023-04-12T02:28:23.647Z,5.48
2023-04-12T02:30:28.816Z,5.46
2023-04-12T02:32:45.637Z,5.44
2023-04-12T02:34:59.261Z,5.43
2023-04-12T02:37:04.892Z,5.40
2023-04-12T02:39:10.711Z,5.42
2023-04-12T02:41:20.665Z,5.37
2023-04-12T02:43:27.393Z,5.26
2023-04-12T02:45:38.333Z,5.22
2023-04-12T02:47:46.222Z,5.21
2023-04-12T02:49:51.418Z,5.19
2023-04-12T02:51:57.879Z,5.20
2023-04-12T02:54:12.078Z,5.22
2023-04-12T02:56:30.610Z,5.35
2023-04-12T02:58:45.086Z,5.47
2023-04-12T03:00:57.549Z,5.61
2023-04-12T03:03:09.535Z,5.76
2023-04-12T03:05:14.866Z,5.83
2023-04-12T03:07:22.802Z,5.85
2023-04-12T03:09:29.550Z,5.78
2023-04-12T03:11:35.166Z,5.76
2023-04-12T03:13:40.603Z,5.72
2023-04-12T03:15:46.860Z,5.74
2023-04-12T03:17:52.216Z,5.76
2023-04-12T03:20:10.304Z,5.78
2023-04-12T03:22:18.911Z,5.81
2023-04-12T03:24:28.679Z,5.78
2023-04-12T03:26:34.643Z,5.81
2023-04-12T03:28:50.011Z,5.81
2023-04-12T03:30:56.274Z,5.80
2023-04-12T03:33:04.741Z,5.73
2023-04-12T03:35:14.234Z,5.73
2023-04-12T03:37:21.415Z,5.69
2023-04-12T03:39:27.433Z,5.65
2023-04-12T03:41:33.252Z,5.62
2023-04-12T03:43:42.740Z,5.64
2023-04-12T03:45:55.675Z,5.65
2023-04-12T03:48:02.947Z,5.62
2023-04-12T03:50:15.587Z,5.63
2023-04-12T03:52:26.700Z,5.64
2023-04-12T03:54:31.826Z,5.63
2023-04-12T03:56:41.304Z,5.64
2023-04-12T03:58:53.482Z,5.65
2023-04-12T04:01:01.764Z,5.61
2023-04-12T04:03:07.955Z,5.61
2023-04-12T04:05:30.483Z,5.63
2023-04-12T04:07:36.725Z,5.65
2023-04-12T04:09:42.286Z,5.68
2023-04-12T04:11:50.193Z,5.68
2023-04-12T04:13:56.440Z,5.69
2023-04-12T04:16:06.256Z,5.72
2023-04-12T04:18:11.836Z,5.76
2023-04-12T04:20:18.229Z,5.72
2023-04-12T04:22:30.297Z,5.70
2023-04-12T04:24:39.184Z,5.68
2023-04-12T04:26:45.814Z,5.78
2023-04-12T04:29:06.930Z,5.78
2023-04-12T04:31:17.962Z,5.74
2023-04-12T04:33:27.920Z,5.83
2023-04-12T04:35:35.545Z,5.82
2023-04-12T04:38:02.093Z,5.83
2023-04-12T04:40:11.840Z,5.87
2023-04-12T04:42:20.052Z,5.85
2023-04-12T04:44:38.264Z,5.95
2023-04-12T04:46:46.257Z,6.04
2023-04-12T04:48:55.380Z,6.13
2023-04-12T04:51:00.452Z,6.21
2023-04-12T04:53:08.753Z,6.30
2023-04-12T04:55:14.790Z,6.36
2023-04-12T04:57:23.103Z,6.45
2023-04-12T04:59:30.894Z,6.48
2023-04-12T05:01:49.246Z,6.51
2023-04-12T05:03:56.384Z,6.56
2023-04-12T05:06:04.829Z,6.56
2023-04-12T05:08:16.169Z,6.63
2023-04-12T05:10:21.371Z,6.70
2023-04-12T05:12:26.865Z,6.68
2023-04-12T05:14:46.787Z,6.73
2023-04-12T05:16:54.339Z,6.74
2023-04-12T05:18:59.479Z,6.77
2023-04-12T05:21:06.662Z,6.82
2023-04-12T05:23:14.622Z,6.86
2023-04-12T05:25:21.306Z,6.89
2023-04-12T05:27:36.436Z,6.87
2023-04-12T05:29:44.966Z,6.92
2023-04-12T05:31:50.603Z,6.92
2023-04-12T05:33:58.961Z,6.97
2023-04-12T05:36:11.264Z,6.99
2023-04-12T05:38:18.962Z,6.98
2023-04-12T05:40:31.766Z,7.07
2023-04-12T05:42:37.263Z,7.09
2023-04-12T05:44:42.411Z,7.15
2023-04-12T05:46:50.851Z,7.15
2023-04-12T05:48:56.431Z,7.20
2023-04-12T05:51:02.241Z,7.23
2023-04-12T05:53:10.678Z,7.34
2023-04-12T05:55:19.448Z,7.37
2023-04-12T05:57:24.480Z,7.38
2023-04-12T05:59:29.524Z,7.41
2023-04-12T06:01:36.029Z,7.45
2023-04-12T06:03:41.950Z,7.41
2023-04-12T06:05:48.511Z,7.41
2023-04-12T06:07:53.584Z,7.42
2023-04-12T06:09:58.623Z,7.48
2023-04-12T06:12:06.621Z,7.54
2023-04-12T06:14:14.690Z,7.53
2023-04-12T06:16:20.130Z,7.65
2023-04-12T06:18:25.261Z,7.58
2023-04-12T06:20:30.854Z,7.60
2023-04-12T06:22:36.702Z,7.70
2023-04-12T06:24:42.100Z,7.72
2023-04-12T06:26:49.327Z,7.75
2023-04-12T06:28:58.639Z,7.82
2023-04-12T06:31:04.520Z,7.90
2023-04-12T06:33:16.622Z,7.98
2023-04-12T06:35:22.590Z,8.11
2023-04-12T06:37:27.740Z,8.16
2023-04-12T06:39:32.804Z,8.13
2023-04-12T06:41:38.289Z,8.12
2023-04-12T06:43:43.330Z,8.15
2023-04-12T06:45:51.341Z,8.25
2023-04-12T06:47:57.254Z,8.31
2023-04-12T06:50:03.100Z,8.34
2023-04-12T06:52:09.451Z,8.49
2023-04-12T06:54:14.490Z,8.33
2023-04-12T06:56:19.913Z,8.35
2023-04-12T06:58:24.960Z,8.44
2023-04-12T07:00:31.442Z,8.60
2023-04-12T07:02:39.743Z,8.44
2023-04-12T07:04:44.834Z,8.35
2023-04-12T07:06:49.871Z,8.39
2023-04-12T07:08:55.153Z,8.44
2023-04-12T07:11:08.593Z,8.42
2023-04-12T07:13:23.100Z,8.34
2023-04-12T07:15:28.387Z,8.29
2023-04-12T07:17:33.474Z,8.25
2023-04-12T07:19:42.280Z,8.29
2023-04-12T07:21:47.324Z,8.30
2023-04-12T07:23:53.250Z,8.29
2023-04-12T07:26:02.690Z,8.42
2023-04-12T07:28:09.139Z,8.38
2023-04-12T07:30:16.785Z,8.26
2023-04-12T07:32:21.868Z,8.20
2023-04-12T07:34:27.305Z,8.17
2023-04-12T07:36:34.961Z,8.19
2023-04-12T07:38:40.304Z,8.14
2023-04-12T07:40:47.622Z,8.12
2023-04-12T07:42:55.222Z,8.17
2023-04-12T07:45:00.710Z,8.20
2023-04-12T07:47:05.808Z,8.18
2023-04-12T07:49:11.086Z,8.28
2023-04-12T07:51:16.164Z,8.36
2023-04-12T07:53:26.841Z,8.34
2023-04-12T07:55:31.844Z,8.50
2023-04-12T07:57:36.870Z,8.40
2023-04-12T07:59:41.929Z,8.42
2023-04-12T08:01:47.222Z,8.27
2023-04-12T08:03:52.770Z,8.21
2023-04-12T08:05:57.908Z,8.18
2023-04-12T08:08:02.950Z,8.25
2023-04-12T08:10:12.157Z,8.21
2023-04-12T08:12:18.207Z,8.20
2023-04-12T08:14:23.476Z,8.13
2023-04-12T08:16:28.537Z,8.20
2023-04-12T08:18:33.649Z,8.24
2023-04-12T08:20:40.867Z,8.25
2023-04-12T08:22:46.371Z,8.32
2023-04-12T08:24:52.649Z,8.30
2023-04-12T08:27:01.059Z,8.32
2023-04-12T08:29:06.540Z,8.27
2023-04-12T08:31:11.833Z,8.24
2023-04-12T08:33:17.374Z,8.26
2023-04-12T08:35:23.264Z,8.28
2023-04-12T08:37:28.739Z,8.31
2023-04-12T08:39:35.002Z,8.37
2023-04-12T08:41:41.877Z,8.42
2023-04-12T08:43:49.889Z,8.52
2023-04-12T08:45:56.598Z,8.41
2023-04-12T08:48:05.973Z,8.54
2023-04-12T08:50:14.666Z,8.70
2023-04-12T08:52:19.789Z,8.76
2023-04-12T08:54:25.308Z,8.85
2023-04-12T08:56:32.250Z,8.94
2023-04-12T08:58:37.571Z,8.97
2023-04-12T09:00:47.197Z,8.92
2023-04-12T09:02:52.416Z,9.12
2023-04-12T09:04:58.764Z,9.39
2023-04-12T09:07:05.717Z,9.63
2023-04-12T09:09:11.701Z,9.72
2023-04-12T09:11:26.645Z,9.90
2023-04-12T09:13:37.250Z,10.19
2023-04-12T09:15:53.945Z,10.60
2023-04-12T09:18:11.538Z,10.74
2023-04-12T09:20:29.402Z,10.71
2023-04-12T09:22:40.246Z,10.64
2023-04-12T09:24:51.791Z,10.58
2023-04-12T09:27:09.265Z,10.31
2023-04-12T09:29:27.789Z,10.39
2023-04-12T09:31:36.341Z,10.45
2023-04-12T09:33:42.713Z,10.24
2023-04-12T09:35:48.520Z,10.27
2023-04-12T09:38:00.936Z,10.22
2023-04-12T09:40:09.168Z,10.20
2023-04-12T09:42:32.412Z,10.20
2023-04-12T09:44:39.252Z,10.00
2023-04-12T09:46:55.220Z,9.90
2023-04-12T09:49:03.561Z,10.00
2023-04-12T09:51:09.526Z,10.12
2023-04-12T09:53:20.396Z,10.19
2023-04-12T09:55:28.110Z,10.10
2023-04-12T09:57:34.472Z,9.98
2023-04-12T09:59:42.035Z,9.76
2023-04-12T10:01:47.679Z,9.70
2023-04-12T10:03:56.964Z,9.88
2023-04-12T10:06:03.123Z,9.93
2023-04-12T10:08:08.900Z,9.92
2023-04-12T10:10:15.698Z,9.72
2023-04-12T10:12:21.523Z,9.63
2023-04-12T10:14:30.401Z,9.75
2023-04-12T10:16:37.727Z,9.66
2023-04-12T10:18:43.022Z,9.71
2023-04-12T10:20:51.764Z,9.53
2023-04-12T10:22:59.805Z,9.46
2023-04-12T10:25:07.789Z,9.51
2023-04-12T10:27:13.202Z,9.56
2023-04-12T10:29:33.798Z,9.56
2023-04-12T10:31:39.546Z,9.48
2023-04-12T10:33:46.102Z,9.43
2023-04-12T10:36:01.051Z,9.33
2023-04-12T10:38:07.296Z,9.43
2023-04-12T10:40:21.202Z,9.52
2023-04-12T10:42:29.666Z,9.59
2023-04-12T10:44:37.756Z,9.51
2023-04-12T10:46:52.997Z,9.52
2023-04-12T10:48:58.275Z,9.55
2023-04-12T10:51:23.652Z,9.70
2023-04-12T10:53:29.005Z,9.83
2023-04-12T10:55:35.665Z,9.86
2023-04-12T10:57:49.788Z,9.91
2023-04-12T10:59:59.667Z,9.96
2023-04-12T11:02:16.279Z,9.91
2023-04-12T11:04:27.461Z,9.83
2023-04-12T11:07:06.590Z,9.80
2023-04-12T11:09:23.143Z,9.86
2023-04-12T11:11:29.817Z,9.89
2023-04-12T11:13:39.065Z,10.02
2023-04-12T11:15:44.365Z,9.99
2023-04-12T11:17:58.054Z,10.01
2023-04-12T11:20:04.990Z,10.15
2023-04-12T11:22:15.087Z,10.12
2023-04-12T11:24:20.480Z,9.99
2023-04-12T11:26:25.762Z,10.04
2023-04-12T11:28:34.675Z,10.07
2023-04-12T11:30:51.043Z,10.12
2023-04-12T11:32:56.558Z,10.18
2023-04-12T11:35:01.975Z,10.16
2023-04-12T11:37:13.932Z,10.34
2023-04-12T11:39:19.050Z,10.38
2023-04-12T11:41:24.125Z,10.57
2023-04-12T11:43:30.151Z,10.59
2023-04-12T11:45:36.789Z,10.65
2023-04-12T11:47:46.782Z,10.67
2023-04-12T11:49:53.783Z,10.68
2023-04-12T11:52:05.993Z,10.69
2023-04-12T11:54:13.920Z,10.78
2023-04-12T11:56:18.946Z,11.13
2023-04-12T11:58:27.101Z,11.20
2023-04-12T12:00:32.335Z,11.53
2023-04-12T12:02:43.775Z,11.31
2023-04-12T12:04:56.300Z,11.47
2023-04-12T12:07:02.663Z,11.44
2023-04-12T12:09:08.849Z,11.34
2023-04-12T12:11:16.529Z,11.39
2023-04-12T12:13:21.830Z,11.59
2023-04-12T12:15:26.901Z,11.45
2023-04-12T12:17:32.046Z,11.40
2023-04-12T12:19:41.819Z,11.38
2023-04-12T12:21:47.339Z,11.61
2023-04-12T12:23:53.147Z,11.53
2023-04-12T12:26:14.251Z,11.47
2023-04-12T12:28:27.204Z,11.49
2023-04-12T12:30:34.046Z,11.29
2023-04-12T12:32:40.810Z,11.37
2023-04-12T12:34:55.168Z,11.23
2023-04-12T12:37:00.198Z,11.34
2023-04-12T12:39:11.995Z,11.40
2023-04-12T12:41:19.837Z,11.52
2023-04-12T12:43:28.593Z,11.41
2023-04-12T12:45:36.600Z,11.21
2023-04-12T12:47:50.946Z,11.24
2023-04-12T12:49:56.378Z,11.10
2023-04-12T12:52:01.455Z,11.07
2023-04-12T12:54:07.811Z,11.13
2023-04-12T12:56:14.487Z,11.37
2023-04-12T12:58:19.492Z,11.44
2023-04-12T13:00:31.719Z,11.40
2023-04-12T13:02:37.005Z,11.38
2023-04-12T13:04:42.504Z,11.39
2023-04-12T13:06:47.598Z,11.38
2023-04-12T13:08:52.673Z,11.49
2023-04-12T13:10:57.696Z,11.52
2023-04-12T13:13:04.256Z,11.56
2023-04-12T13:15:20.955Z,11.63
2023-04-12T13:17:30.824Z,11.47
2023-04-12T13:19:36.084Z,11.37
2023-04-12T13:21:41.219Z,11.29
2023-04-12T13:23:46.241Z,11.35
2023-04-12T13:25:51.536Z,11.27
2023-04-12T13:27:56.599Z,11.22
2023-04-12T13:30:02.875Z,11.29
2023-04-12T13:32:08.303Z,11.31
2023-04-12T13:34:16.073Z,11.43
2023-04-12T13:36:21.092Z,11.54
2023-04-12T13:38:26.140Z,11.53
2023-04-12T13:40:31.179Z,11.50
2023-04-12T13:42:36.313Z,11.50
2023-04-12T13:44:41.345Z,11.51
2023-04-12T13:46:46.357Z,11.39
2023-04-12T13:48:51.831Z,11.31
2023-04-12T13:50:59.951Z,11.42
2023-04-12T13:53:05.003Z,11.55
2023-04-12T13:55:11.336Z,11.59
2023-04-12T13:57:16.654Z,11.67
2023-04-12T13:59:21.721Z,11.74
2023-04-12T14:01:27.550Z,11.66
2023-04-12T14:03:32.711Z,11.64
2023-04-12T14:05:37.952Z,11.75
2023-04-12T14:07:45.551Z,11.75
2023-04-12T14:09:51.435Z,11.65
2023-04-12T14:11:58.187Z,11.63
2023-04-12T14:14:03.173Z,11.56
2023-04-12T14:16:10.156Z,11.51
2023-04-12T14:18:15.864Z,11.45
2023-04-12T14:20:22.725Z,11.45
2023-04-12T14:22:28.239Z,11.53
2023-04-12T14:24:36.879Z,11.48
2023-04-12T14:26:42.796Z,11.38
2023-04-12T14:28:50.184Z,11.24
2023-04-12T14:30:55.685Z,11.34
2023-04-12T14:33:01.501Z,11.34
2023-04-12T14:35:07.170Z,11.33
2023-04-12T14:37:12.251Z,11.45
2023-04-12T14:39:17.281Z,11.63
2023-04-12T14:41:25.244Z,11.87
2023-04-12T14:43:30.867Z,12.10
2023-04-12T14:45:36.059Z,12.49
2023-04-12T14:47:41.642Z,12.89
2023-04-12T14:49:47.126Z,13.12
2023-04-12T14:51:52.158Z,13.28
2023-04-12T14:53:58.043Z,13.63
2023-04-12T14:56:03.354Z,13.71
2023-04-12T14:58:11.044Z,13.69
2023-04-12T15:00:17.951Z,13.34
2023-04-12T15:02:24.633Z,13.35
2023-04-12T15:04:30.402Z,13.27
2023-04-12T15:06:42.331Z,13.38
2023-04-12T15:08:49.605Z,13.20
2023-04-12T15:10:54.666Z,13.08
2023-04-12T15:13:00.253Z,13.14
2023-04-12T15:15:09.205Z,13.14
2023-04-12T15:17:14.255Z,12.99
2023-04-12T15:19:22.883Z,12.64
2023-04-12T15:21:28.997Z,12.42
2023-04-12T15:23:34.497Z,12.32
2023-04-12T15:25:39.570Z,12.08
2023-04-12T15:27:44.876Z,11.94
2023-04-12T15:29:49.878Z,11.87
2023-04-12T15:31:58.840Z,11.68
2023-04-12T15:34:04.085Z,11.59
2023-04-12T15:36:10.706Z,11.55
2023-04-12T15:38:20.915Z,11.52
2023-04-12T15:40:28.999Z,11.54
2023-04-12T15:42:34.014Z,11.55
2023-04-12T15:44:39.122Z,11.54
2023-04-12T15:46:50.754Z,11.59
2023-04-12T15:49:04.180Z,11.64
2023-04-12T15:51:10.113Z,11.75
2023-04-12T15:53:15.446Z,11.97
2023-04-12T15:55:22.076Z,12.07
2023-04-12T15:57:27.775Z,12.20
2023-04-12T15:59:32.901Z,12.20
2023-04-12T16:01:38.419Z,12.14
2023-04-12T16:03:46.488Z,12.10
2023-04-12T16:05:56.854Z,12.09
2023-04-12T16:08:02.136Z,11.96
2023-04-12T16:10:08.502Z,12.07
2023-04-12T16:12:13.500Z,12.47
2023-04-12T16:14:18.513Z,13.23
2023-04-12T16:16:25.504Z,13.97
2023-04-12T16:18:31.068Z,15.10
2023-04-12T16:20:36.058Z,16.56
2023-04-12T16:22:44.277Z,17.54
2023-04-12T16:24:49.359Z,18.45
2023-04-12T16:26:54.396Z,18.53
2023-04-12T16:29:02.486Z,18.48
2023-04-12T16:31:08.049Z,17.20
2023-04-12T16:33:15.982Z,15.63
2023-04-12T16:35:21.499Z,14.77
2023-04-12T16:37:26.949Z,13.93
2023-04-12T16:39:35.433Z,13.53
2023-04-12T16:41:40.629Z,13.06
2023-04-12T16:43:45.831Z,12.46
2023-04-12T16:45:50.827Z,12.06
2023-04-12T16:47:56.116Z,11.81
2023-04-12T16:50:01.250Z,11.72
2023-04-12T16:52:06.302Z,11.61
2023-04-12T16:54:11.433Z,11.39
2023-04-12T16:56:20.081Z,11.37
2023-04-12T16:58:25.143Z,11.29
2023-04-12T17:00:32.709Z,11.23
2023-04-12T17:02:38.409Z,11.22
2023-04-12T17:04:44.152Z,11.33
2023-04-12T17:06:49.210Z,11.52
2023-04-12T17:08:54.336Z,11.97
2023-04-12T17:10:59.363Z,12.01
2023-04-12T17:13:07.131Z,12.02
2023-04-12T17:15:13.279Z,12.39
2023-04-12T17:17:18.255Z,12.26
2023-04-12T17:19:23.244Z,11.89
2023-04-12T17:21:28.313Z,11.83
2023-04-12T17:23:33.611Z,11.44
2023-04-12T17:25:38.845Z,11.14
2023-04-12T17:27:44.168Z,10.81
2023-04-12T17:29:53.150Z,10.59
2023-04-12T17:31:58.147Z,10.50
2023-04-12T17:34:05.112Z,10.45
2023-04-12T17:36:11.943Z,10.40
2023-04-12T17:38:17.169Z,10.22
2023-04-12T17:40:22.342Z,10.06
2023-04-12T17:42:27.410Z,9.95
2023-04-12T17:44:33.084Z,9.81
2023-04-12T17:46:40.798Z,9.73
2023-04-12T17:48:45.987Z,9.62
2023-04-12T17:50:51.057Z,9.47
2023-04-12T17:52:56.340Z,9.20
2023-04-12T17:55:01.705Z,8.98
2023-04-12T17:57:07.106Z,8.82
2023-04-12T17:59:12.988Z,8.65
2023-04-12T18:01:18.592Z,8.48
2023-04-12T18:03:26.856Z,8.33
2023-04-12T18:05:32.069Z,8.18
2023-04-12T18:07:37.297Z,8.02
2023-04-12T18:09:45.653Z,7.86
2023-04-12T18:11:50.678Z,7.79
2023-04-12T18:13:56.912Z,7.75
2023-04-12T18:16:02.297Z,7.80
2023-04-12T18:18:08.149Z,7.83
2023-04-12T18:20:16.843Z,7.72
2023-04-12T18:22:22.059Z,7.63
2023-04-12T18:24:27.083Z,7.60
2023-04-12T18:26:32.498Z,7.59
2023-04-12T18:28:39.111Z,7.53
2023-04-12T18:30:46.060Z,7.42
2023-04-12T18:32:51.203Z,7.30
2023-04-12T18:34:56.401Z,7.19
2023-04-12T18:37:04.210Z,7.15
2023-04-12T18:39:11.177Z,7.15
2023-04-12T18:41:17.033Z,7.23
2023-04-12T18:43:22.774Z,7.04
2023-04-12T18:45:27.827Z,6.85
2023-04-12T18:47:32.855Z,6.67
2023-04-12T18:49:38.598Z,6.56
2023-04-12T18:51:43.682Z,6.53
2023-04-12T18:53:52.514Z,6.49
2023-04-12T18:55:57.707Z,6.39
2023-04-12T18:58:02.756Z,6.24
2023-04-12T19:00:13.675Z,6.26
2023-04-12T19:02:18.748Z,6.30
2023-04-12T19:04:23.942Z,6.20
2023-04-12T19:06:29.065Z,6.21
2023-04-12T19:08:34.221Z,6.19
2023-04-12T19:10:42.014Z,6.19
2023-04-12T19:12:47.589Z,6.21
2023-04-12T19:14:52.688Z,6.26
2023-04-12T19:16:57.744Z,6.32
2023-04-12T19:19:03.234Z,6.50
2023-04-12T19:21:09.515Z,6.48
2023-04-12T19:23:15.120Z,6.70
2023-04-12T19:25:20.514Z,7.01
2023-04-12T19:27:28.508Z,7.24
2023-04-12T19:29:33.494Z,7.41
2023-04-12T19:31:38.823Z,7.49
2023-04-12T19:33:44.320Z,7.49
2023-04-12T19:35:49.801Z,7.28
2023-04-12T19:37:55.577Z,6.95
2023-04-12T19:40:00.574Z,6.82
2023-04-12T19:42:06.760Z,6.69
2023-04-12T19:44:14.342Z,6.57
2023-04-12T19:46:20.433Z,6.56
2023-04-12T19:48:26.057Z,6.51
2023-04-12T19:50:31.753Z,6.42
2023-04-12T19:52:36.766Z,6.39
2023-04-12T19:54:41.781Z,6.44
2023-04-12T19:56:47.689Z,6.41
2023-04-12T19:58:54.732Z,6.40
2023-04-12T20:01:04.258Z,6.35
2023-04-12T20:03:09.643Z,6.34
2023-04-12T20:05:15.964Z,6.34
2023-04-12T20:07:20.987Z,6.32
2023-04-12T20:09:26.524Z,6.29
2023-04-12T20:11:31.546Z,6.32
2023-04-12T20:13:37.301Z,6.37
2023-04-12T20:15:42.332Z,6.39
2023-04-12T20:17:52.162Z,6.37
2023-04-12T20:19:58.665Z,6.41
2023-04-12T20:22:04.525Z,6.39
2023-04-12T20:24:10.908Z,6.40
2023-04-12T20:26:16.700Z,6.42
2023-04-12T20:28:22.834Z,6.43
2023-04-12T20:30:28.816Z,6.42
2023-04-12T20:32:34.545Z,6.37
2023-04-12T20:34:46.865Z,6.28
2023-04-12T20:36:54.993Z,6.24
2023-04-12T20:39:01.729Z,6.19
2023-04-12T20:41:07.149Z,6.07
2023-04-12T20:43:12.171Z,5.97
2023-04-12T20:45:18.908Z,5.95
2023-04-12T20:47:23.968Z,5.83
2023-04-12T20:49:30.095Z,5.77
2023-04-12T20:51:37.811Z,5.59
2023-04-12T20:53:44.039Z,5.43
2023-04-12T20:55:49.032Z,5.34
2023-04-12T20:57:55.892Z,5.21
2023-04-12T21:00:01.556Z,5.13
2023-04-12T21:02:07.369Z,5.17
2023-04-12T21:04:15.289Z,5.19
2023-04-12T21:06:20.428Z,5.20
2023-04-12T21:08:28.216Z,5.17
2023-04-12T21:10:33.393Z,5.16
2023-04-12T21:12:38.642Z,5.10
2023-04-12T21:14:45.647Z,4.96
2023-04-12T21:16:51.340Z,4.87
2023-04-12T21:18:56.642Z,4.87
2023-04-12T21:21:02.580Z,4.87
2023-04-12T21:23:08.283Z,4.75
2023-04-12T21:25:18.213Z,4.69
2023-04-12T21:27:23.217Z,4.77
2023-04-12T21:29:31.994Z,4.84
2023-04-12T21:31:39.283Z,4.89
2023-04-12T21:33:44.299Z,4.87
2023-04-12T21:35:49.358Z,4.84
2023-04-12T21:37:54.479Z,4.90
2023-04-12T21:39:59.990Z,4.87
2023-04-12T21:42:07.983Z,4.75
2023-04-12T21:44:13.462Z,4.68
2023-04-12T21:46:18.562Z,4.55
2023-04-12T21:48:23.596Z,4.49
2023-04-12T21:50:29.363Z,4.44
2023-04-12T21:52:34.460Z,4.31
2023-04-12T21:54:39.810Z,4.16
2023-04-12T21:56:44.812Z,4.05
2023-04-12T21:58:52.413Z,3.93
2023-04-12T22:00:58.362Z,3.88
2023-04-12T22:03:04.164Z,3.81
2023-04-12T22:05:11.087Z,4.07
2023-04-12T22:07:17.590Z,4.08
2023-04-12T22:09:22.621Z,4.09
2023-04-12T22:11:28.305Z,3.98
2023-04-12T22:13:37.355Z,3.90
2023-04-12T22:15:45.354Z,3.84
2023-04-12T22:17:50.451Z,3.85
2023-04-12T22:19:56.876Z,3.90
2023-04-12T22:22:02.943Z,3.91
2023-04-12T22:24:08.535Z,3.91
2023-04-12T22:26:15.397Z,3.94
2023-04-12T22:28:22.375Z,4.07
2023-04-12T22:30:27.949Z,4.07
2023-04-12T22:32:35.676Z,4.15
2023-04-12T22:34:41.105Z,4.16
2023-04-12T22:36:51.778Z,4.18
2023-04-12T22:38:56.808Z,4.23
2023-04-12T22:41:02.303Z,4.17
2023-04-12T22:43:08.035Z,4.14
2023-04-12T22:45:14.930Z,4.13
2023-04-12T22:47:19.913Z,4.15
2023-04-12T22:49:30.832Z,4.18
2023-04-12T22:51:36.132Z,4.16
2023-04-12T22:53:41.169Z,4.16
2023-04-12T22:55:46.796Z,4.10
2023-04-12T22:57:53.231Z,4.06
2023-04-12T22:59:59.352Z,3.97
2023-04-12T23:02:05.018Z,3.91
2023-04-12T23:04:11.626Z,3.84
2023-04-12T23:06:19.979Z,3.82
2023-04-12T23:08:25.759Z,3.85
2023-04-12T23:10:33.963Z,3.78
2023-04-12T23:12:39.295Z,3.68
2023-04-12T23:14:45.059Z,3.70
2023-04-12T23:16:52.050Z,3.71
2023-04-12T23:18:57.708Z,3.78
2023-04-12T23:21:03.670Z,3.83
2023-04-12T23:23:11.270Z,3.97
2023-04-12T23:25:16.786Z,3.83
2023-04-12T23:27:22.836Z,3.88
2023-04-12T23:29:28.369Z,3.80
2023-04-12T23:31:34.117Z,3.64
2023-04-12T23:33:39.173Z,3.60
2023-04-12T23:35:45.539Z,3.46
2023-04-12T23:37:50.860Z,3.43
2023-04-12T23:40:06.058Z,3.32
2023-04-12T23:42:11.809Z,3.18
2023-04-12T23:44:18.021Z,3.14
2023-04-12T23:46:23.716Z,3.40
2023-04-12T23:48:29.001Z,3.54
2023-04-12T23:50:33.975Z,3.53
2023-04-12T23:52:38.967Z,3.60
2023-04-12T23:54:44.003Z,3.55
2023-04-12T23:56:51.560Z,3.68
2023-04-12T23:58:56.537Z,3.87
